sensor_id;sensor_type;location;lat;lon;timestamp;temperature;humidity
20726;DHT22;10524;48.132;8.518;2023-01-16T00:00:27;0.00;99.90
20726;DHT22;10524;48.132;8.518;2023-01-16T00:02:53;0.10;99.90
20726;DHT22;10524;48.132;8.518;2023-01-16T00:05:19;0.10;99.90
20726;DHT22;10524;48.132;8.518;2023-01-16T00:07:44;0.20;99.90
20726;DHT22;10524;48.132;8.518;2023-01-16T00:10:10;0.20;99.90
20726;DHT22;10524;48.132;8.518;2023-01-16T00:12:36;0.30;99.90
20726;DHT22;10524;48.132;8.518;2023-01-16T00:15:02;0.30;99.90
20726;DHT22;10524;48.132;8.518;2023-01-16T00:17:28;0.30;99.90
20726;DHT22;10524;48.132;8.518;2023-01-16T00:19:53;0.30;99.90
20726;DHT22;10524;48.132;8.518;2023-01-16T00:22:19;0.30;99.90
20726;DHT22;10524;48.132;8.518;2023-01-16T00:24:44;0.30;99.90
20726;DHT22;10524;48.132;8.518;2023-01-16T00:27:10;0.30;99.90
20726;DHT22;10524;48.132;8.518;2023-01-16T00:29:36;0.30;99.90
20726;DHT22;10524;48.132;8.518;2023-01-16T00:32:01;0.30;99.90
20726;DHT22;10524;48.132;8.518;2023-01-16T00:34:27;0.30;99.90
20726;DHT22;10524;48.132;8.518;2023-01-16T00:36:53;0.40;99.90
20726;DHT22;10524;48.132;8.518;2023-01-16T00:39:19;0.40;99.90
20726;DHT22;10524;48.132;8.518;2023-01-16T00:41:44;0.40;99.90
20726;DHT22;10524;48.132;8.518;2023-01-16T00:44:10;0.40;99.90
20726;DHT22;10524;48.132;8.518;2023-01-16T00:46:35;0.40;99.90
20726;DHT22;10524;48.132;8.518;2023-01-16T00:49:01;0.30;99.90
20726;DHT22;10524;48.132;8.518;2023-01-16T00:51:27;0.30;99.90
20726;DHT22;10524;48.132;8.518;2023-01-16T00:53:52;0.40;99.90
20726;DHT22;10524;48.132;8.518;2023-01-16T00:56:18;0.40;99.90
20726;DHT22;10524;48.132;8.518;2023-01-16T00:58:44;0.40;99.90
20726;DHT22;10524;48.132;8.518;2023-01-16T01:01:09;0.40;99.90
20726;DHT22;10524;48.132;8.518;2023-01-16T01:03:35;0.40;99.90
20726;DHT22;10524;48.132;8.518;2023-01-16T01:06:08;0.40;99.90
20726;DHT22;10524;48.132;8.518;2023-01-16T01:08:34;0.40;99.90
20726;DHT22;10524;48.132;8.518;2023-01-16T01:11:12;0.40;99.90
20726;DHT22;10524;48.132;8.518;2023-01-16T01:13:39;0.40;99.90
20726;DHT22;10524;48.132;8.518;2023-01-16T01:16:06;0.40;99.90
20726;DHT22;10524;48.132;8.518;2023-01-16T01:18:32;0.40;99.90
20726;DHT22;10524;48.132;8.518;2023-01-16T01:20:57;0.40;99.90
20726;DHT22;10524;48.132;8.518;2023-01-16T01:23:23;0.40;99.90
20726;DHT22;10524;48.132;8.518;2023-01-16T01:25:49;0.30;99.90
20726;DHT22;10524;48.132;8.518;2023-01-16T01:28:15;0.40;99.90
20726;DHT22;10524;48.132;8.518;2023-01-16T01:30:41;0.40;99.90
20726;DHT22;10524;48.132;8.518;2023-01-16T01:33:06;0.40;99.90
20726;DHT22;10524;48.132;8.518;2023-01-16T01:35:34;0.40;99.90
20726;DHT22;10524;48.132;8.518;2023-01-16T01:37:59;0.30;99.90
20726;DHT22;10524;48.132;8.518;2023-01-16T01:40:25;0.30;99.90
20726;DHT22;10524;48.132;8.518;2023-01-16T01:42:51;0.30;99.90
20726;DHT22;10524;48.132;8.518;2023-01-16T01:45:25;0.30;99.90
20726;DHT22;10524;48.132;8.518;2023-01-16T01:48:04;0.40;99.90
20726;DHT22;10524;48.132;8.518;2023-01-16T01:50:42;0.30;99.90
20726;DHT22;10524;48.132;8.518;2023-01-16T01:53:19;0.30;99.90
20726;DHT22;10524;48.132;8.518;2023-01-16T01:55:46;0.20;99.90
20726;DHT22;10524;48.132;8.518;2023-01-16T01:58:14;0.10;99.90
20726;DHT22;10524;48.132;8.518;2023-01-16T02:00:49;0.00;99.90
20726;DHT22;10524;48.132;8.518;2023-01-16T02:03:19;-0.10;99.90
20726;DHT22;10524;48.132;8.518;2023-01-16T02:05:54;-0.20;99.90
20726;DHT22;10524;48.132;8.518;2023-01-16T02:08:22;-0.20;99.90
20726;DHT22;10524;48.132;8.518;2023-01-16T02:10:58;-0.20;99.90
20726;DHT22;10524;48.132;8.518;2023-01-16T02:13:25;-0.20;99.90
20726;DHT22;10524;48.132;8.518;2023-01-16T02:15:51;-0.20;99.90
20726;DHT22;10524;48.132;8.518;2023-01-16T02:18:35;-0.30;99.90
20726;DHT22;10524;48.132;8.518;2023-01-16T02:21:45;-0.30;99.90
20726;DHT22;10524;48.132;8.518;2023-01-16T02:27:27;-0.20;99.90
20726;DHT22;10524;48.132;8.518;2023-01-16T02:35:52;0.10;99.90
20726;DHT22;10524;48.132;8.518;2023-01-16T02:38:34;0.00;99.90
20726;DHT22;10524;48.132;8.518;2023-01-16T02:47:15;0.10;99.90
20726;DHT22;10524;48.132;8.518;2023-01-16T02:49:48;0.00;99.90
20726;DHT22;10524;48.132;8.518;2023-01-16T02:52:22;-0.20;99.90
20726;DHT22;10524;48.132;8.518;2023-01-16T02:55:01;-0.30;99.90
20726;DHT22;10524;48.132;8.518;2023-01-16T02:57:38;-0.40;99.90
20726;DHT22;10524;48.132;8.518;2023-01-16T03:00:06;-0.40;99.90
20726;DHT22;10524;48.132;8.518;2023-01-16T03:02:33;-0.50;99.90
20726;DHT22;10524;48.132;8.518;2023-01-16T03:04:59;-0.50;99.90
20726;DHT22;10524;48.132;8.518;2023-01-16T03:13:03;-0.60;99.90
20726;DHT22;10524;48.132;8.518;2023-01-16T03:18:53;-0.80;99.90
20726;DHT22;10524;48.132;8.518;2023-01-16T03:27:38;-0.80;99.90
20726;DHT22;10524;48.132;8.518;2023-01-16T03:32:59;-0.60;99.90
20726;DHT22;10524;48.132;8.518;2023-01-16T03:35:31;-0.60;99.90
20726;DHT22;10524;48.132;8.518;2023-01-16T03:38:06;-0.70;99.90
20726;DHT22;10524;48.132;8.518;2023-01-16T03:40:36;-0.80;99.90
20726;DHT22;10524;48.132;8.518;2023-01-16T03:45:58;-0.80;99.90
20726;DHT22;10524;48.132;8.518;2023-01-16T03:49:01;-0.90;99.90
20726;DHT22;10524;48.132;8.518;2023-01-16T03:51:36;-0.80;99.90
20726;DHT22;10524;48.132;8.518;2023-01-16T03:56:43;-0.80;99.90
20726;DHT22;10524;48.132;8.518;2023-01-16T03:59:10;-0.80;99.90
20726;DHT22;10524;48.132;8.518;2023-01-16T04:04:11;-0.70;99.90
20726;DHT22;10524;48.132;8.518;2023-01-16T04:06:48;-0.70;99.90
20726;DHT22;10524;48.132;8.518;2023-01-16T04:09:24;-0.70;99.90
20726;DHT22;10524;48.132;8.518;2023-01-16T04:11:52;-0.70;99.90
20726;DHT22;10524;48.132;8.518;2023-01-16T04:14:19;-0.80;99.90
20726;DHT22;10524;48.132;8.518;2023-01-16T04:16:47;-0.70;99.90
20726;DHT22;10524;48.132;8.518;2023-01-16T04:19:15;-0.80;99.90
20726;DHT22;10524;48.132;8.518;2023-01-16T04:21:45;-0.90;99.90
20726;DHT22;10524;48.132;8.518;2023-01-16T04:24:12;-0.90;99.90
20726;DHT22;10524;48.132;8.518;2023-01-16T04:26:38;-1.20;99.90
20726;DHT22;10524;48.132;8.518;2023-01-16T04:29:04;-1.10;99.90
20726;DHT22;10524;48.132;8.518;2023-01-16T04:31:30;-1.00;99.90
20726;DHT22;10524;48.132;8.518;2023-01-16T04:33:55;-0.90;99.90
20726;DHT22;10524;48.132;8.518;2023-01-16T04:36:21;-1.00;99.90
20726;DHT22;10524;48.132;8.518;2023-01-16T04:38:47;-1.00;99.90
20726;DHT22;10524;48.132;8.518;2023-01-16T04:41:13;-0.90;99.90
20726;DHT22;10524;48.132;8.518;2023-01-16T04:43:58;-0.90;99.90
20726;DHT22;10524;48.132;8.518;2023-01-16T04:46:24;-0.80;99.90
20726;DHT22;10524;48.132;8.518;2023-01-16T04:48:49;-0.80;99.90
20726;DHT22;10524;48.132;8.518;2023-01-16T04:51:15;-0.90;99.90
20726;DHT22;10524;48.132;8.518;2023-01-16T04:53:40;-0.80;99.90
20726;DHT22;10524;48.132;8.518;2023-01-16T04:56:06;-0.90;99.90
20726;DHT22;10524;48.132;8.518;2023-01-16T04:58:32;-1.00;99.90
20726;DHT22;10524;48.132;8.518;2023-01-16T05:00:57;-1.00;99.90
20726;DHT22;10524;48.132;8.518;2023-01-16T05:03:23;-1.00;99.90
20726;DHT22;10524;48.132;8.518;2023-01-16T05:05:48;-0.90;99.90
20726;DHT22;10524;48.132;8.518;2023-01-16T05:08:14;-0.90;99.90
20726;DHT22;10524;48.132;8.518;2023-01-16T05:10:43;-0.90;99.90
20726;DHT22;10524;48.132;8.518;2023-01-16T05:13:08;-1.00;99.90
20726;DHT22;10524;48.132;8.518;2023-01-16T05:15:34;-1.00;99.90
20726;DHT22;10524;48.132;8.518;2023-01-16T05:17:59;-1.00;99.90
20726;DHT22;10524;48.132;8.518;2023-01-16T05:20:25;-1.10;99.90
20726;DHT22;10524;48.132;8.518;2023-01-16T05:22:51;-1.20;99.90
20726;DHT22;10524;48.132;8.518;2023-01-16T05:25:16;-1.10;99.90
20726;DHT22;10524;48.132;8.518;2023-01-16T05:27:42;-1.10;99.90
20726;DHT22;10524;48.132;8.518;2023-01-16T05:30:08;-1.10;99.90
20726;DHT22;10524;48.132;8.518;2023-01-16T05:32:35;-1.30;99.90
20726;DHT22;10524;48.132;8.518;2023-01-16T05:35:00;-1.30;99.90
20726;DHT22;10524;48.132;8.518;2023-01-16T05:37:28;-1.30;99.90
20726;DHT22;10524;48.132;8.518;2023-01-16T05:39:53;-1.40;99.90
20726;DHT22;10524;48.132;8.518;2023-01-16T05:42:23;-1.30;99.90
20726;DHT22;10524;48.132;8.518;2023-01-16T05:44:51;-1.30;99.90
20726;DHT22;10524;48.132;8.518;2023-01-16T05:47:18;-1.20;99.90
20726;DHT22;10524;48.132;8.518;2023-01-16T05:49:43;-1.20;99.90
20726;DHT22;10524;48.132;8.518;2023-01-16T05:52:09;-1.10;99.90
20726;DHT22;10524;48.132;8.518;2023-01-16T05:54:34;-1.00;99.90
20726;DHT22;10524;48.132;8.518;2023-01-16T05:57:00;-1.00;99.90
20726;DHT22;10524;48.132;8.518;2023-01-16T05:59:26;-1.00;99.90
20726;DHT22;10524;48.132;8.518;2023-01-16T06:01:51;-1.00;99.90
20726;DHT22;10524;48.132;8.518;2023-01-16T06:04:17;-0.90;99.90
20726;DHT22;10524;48.132;8.518;2023-01-16T06:06:45;-0.90;99.90
20726;DHT22;10524;48.132;8.518;2023-01-16T06:09:11;-0.80;99.90
20726;DHT22;10524;48.132;8.518;2023-01-16T06:11:36;-0.80;99.90
20726;DHT22;10524;48.132;8.518;2023-01-16T06:14:02;-0.70;99.90
20726;DHT22;10524;48.132;8.518;2023-01-16T06:16:30;-0.70;99.90
20726;DHT22;10524;48.132;8.518;2023-01-16T06:18:56;-0.60;99.90
20726;DHT22;10524;48.132;8.518;2023-01-16T06:21:22;-0.70;99.90
20726;DHT22;10524;48.132;8.518;2023-01-16T06:23:47;-0.70;99.90
20726;DHT22;10524;48.132;8.518;2023-01-16T06:26:13;-0.70;99.90
20726;DHT22;10524;48.132;8.518;2023-01-16T06:28:39;-0.80;99.90
20726;DHT22;10524;48.132;8.518;2023-01-16T06:31:05;-0.90;99.90
20726;DHT22;10524;48.132;8.518;2023-01-16T06:33:31;-0.80;99.90
20726;DHT22;10524;48.132;8.518;2023-01-16T06:35:57;-0.80;99.90
20726;DHT22;10524;48.132;8.518;2023-01-16T06:38:23;-0.80;99.90
20726;DHT22;10524;48.132;8.518;2023-01-16T06:40:48;-0.80;99.90
20726;DHT22;10524;48.132;8.518;2023-01-16T06:43:14;-0.80;99.90
20726;DHT22;10524;48.132;8.518;2023-01-16T06:45:42;-0.80;99.90
20726;DHT22;10524;48.132;8.518;2023-01-16T06:48:10;-0.80;99.90
20726;DHT22;10524;48.132;8.518;2023-01-16T06:50:36;-0.80;99.90
20726;DHT22;10524;48.132;8.518;2023-01-16T06:53:01;-0.70;99.90
20726;DHT22;10524;48.132;8.518;2023-01-16T06:55:27;-0.70;99.90
20726;DHT22;10524;48.132;8.518;2023-01-16T06:57:53;-0.80;99.90
20726;DHT22;10524;48.132;8.518;2023-01-16T07:00:18;-0.70;99.90
20726;DHT22;10524;48.132;8.518;2023-01-16T07:02:51;-0.80;99.90
20726;DHT22;10524;48.132;8.518;2023-01-16T07:05:16;-0.70;99.90
20726;DHT22;10524;48.132;8.518;2023-01-16T07:07:42;-0.70;99.90
20726;DHT22;10524;48.132;8.518;2023-01-16T07:10:08;-0.70;99.90
20726;DHT22;10524;48.132;8.518;2023-01-16T07:12:34;-0.70;99.90
20726;DHT22;10524;48.132;8.518;2023-01-16T07:15:00;-0.70;99.90
20726;DHT22;10524;48.132;8.518;2023-01-16T07:17:44;-0.70;99.90
20726;DHT22;10524;48.132;8.518;2023-01-16T07:20:28;-0.70;99.90
20726;DHT22;10524;48.132;8.518;2023-01-16T07:23:20;-0.70;99.90
20726;DHT22;10524;48.132;8.518;2023-01-16T07:25:47;-0.60;99.90
20726;DHT22;10524;48.132;8.518;2023-01-16T07:28:13;-0.60;99.90
20726;DHT22;10524;48.132;8.518;2023-01-16T07:30:39;-0.60;99.90
20726;DHT22;10524;48.132;8.518;2023-01-16T07:33:05;-0.60;99.90
20726;DHT22;10524;48.132;8.518;2023-01-16T07:35:31;-0.60;99.90
20726;DHT22;10524;48.132;8.518;2023-01-16T07:37:57;-0.60;99.90
20726;DHT22;10524;48.132;8.518;2023-01-16T07:40:23;-0.70;99.90
20726;DHT22;10524;48.132;8.518;2023-01-16T07:42:50;-0.70;99.90
20726;DHT22;10524;48.132;8.518;2023-01-16T07:45:16;-0.60;99.90
20726;DHT22;10524;48.132;8.518;2023-01-16T07:47:42;-0.60;99.90
20726;DHT22;10524;48.132;8.518;2023-01-16T07:50:09;-0.60;99.90
20726;DHT22;10524;48.132;8.518;2023-01-16T07:52:34;-0.60;99.90
20726;DHT22;10524;48.132;8.518;2023-01-16T07:55:00;-0.50;99.90
20726;DHT22;10524;48.132;8.518;2023-01-16T07:57:26;-0.30;99.90
20726;DHT22;10524;48.132;8.518;2023-01-16T07:59:52;0.10;99.90
20726;DHT22;10524;48.132;8.518;2023-01-16T08:02:18;1.10;99.90
20726;DHT22;10524;48.132;8.518;2023-01-16T08:04:43;1.60;99.90
20726;DHT22;10524;48.132;8.518;2023-01-16T08:07:09;1.30;99.90
20726;DHT22;10524;48.132;8.518;2023-01-16T08:09:35;0.80;99.90
20726;DHT22;10524;48.132;8.518;2023-01-16T08:12:00;0.50;99.90
20726;DHT22;10524;48.132;8.518;2023-01-16T08:14:26;0.50;99.90
20726;DHT22;10524;48.132;8.518;2023-01-16T08:16:51;0.50;99.90
20726;DHT22;10524;48.132;8.518;2023-01-16T08:19:17;0.40;99.90
20726;DHT22;10524;48.132;8.518;2023-01-16T08:21:43;0.30;99.90
20726;DHT22;10524;48.132;8.518;2023-01-16T08:24:09;0.20;99.90
20726;DHT22;10524;48.132;8.518;2023-01-16T08:26:35;0.20;99.90
20726;DHT22;10524;48.132;8.518;2023-01-16T08:29:01;0.20;99.90
20726;DHT22;10524;48.132;8.518;2023-01-16T08:31:27;0.20;99.90
20726;DHT22;10524;48.132;8.518;2023-01-16T08:33:53;0.20;99.90
20726;DHT22;10524;48.132;8.518;2023-01-16T08:36:19;0.30;99.90
20726;DHT22;10524;48.132;8.518;2023-01-16T08:38:49;0.30;99.90
20726;DHT22;10524;48.132;8.518;2023-01-16T08:41:16;0.30;99.90
20726;DHT22;10524;48.132;8.518;2023-01-16T08:44:00;0.40;99.90
20726;DHT22;10524;48.132;8.518;2023-01-16T08:46:52;0.50;99.90
20726;DHT22;10524;48.132;8.518;2023-01-16T08:49:37;0.60;99.90
20726;DHT22;10524;48.132;8.518;2023-01-16T08:52:22;0.60;99.90
20726;DHT22;10524;48.132;8.518;2023-01-16T08:54:48;0.70;99.90
20726;DHT22;10524;48.132;8.518;2023-01-16T08:57:13;0.70;99.90
20726;DHT22;10524;48.132;8.518;2023-01-16T08:59:39;0.60;99.90
20726;DHT22;10524;48.132;8.518;2023-01-16T09:02:05;0.60;99.90
20726;DHT22;10524;48.132;8.518;2023-01-16T09:04:34;0.70;99.90
20726;DHT22;10524;48.132;8.518;2023-01-16T09:07:01;0.70;99.90
20726;DHT22;10524;48.132;8.518;2023-01-16T09:09:26;0.80;99.90
20726;DHT22;10524;48.132;8.518;2023-01-16T09:11:56;0.90;99.90
20726;DHT22;10524;48.132;8.518;2023-01-16T09:14:40;1.10;99.90
20726;DHT22;10524;48.132;8.518;2023-01-16T09:17:06;1.20;99.90
20726;DHT22;10524;48.132;8.518;2023-01-16T09:19:32;1.30;99.90
20726;DHT22;10524;48.132;8.518;2023-01-16T09:21:58;1.30;99.90
20726;DHT22;10524;48.132;8.518;2023-01-16T09:24:23;1.40;99.90
20726;DHT22;10524;48.132;8.518;2023-01-16T09:26:50;1.40;99.90
20726;DHT22;10524;48.132;8.518;2023-01-16T09:29:16;1.40;99.90
20726;DHT22;10524;48.132;8.518;2023-01-16T09:31:41;1.60;99.90
20726;DHT22;10524;48.132;8.518;2023-01-16T09:34:07;1.60;99.90
20726;DHT22;10524;48.132;8.518;2023-01-16T09:36:33;1.50;99.90
20726;DHT22;10524;48.132;8.518;2023-01-16T09:38:58;1.40;99.90
20726;DHT22;10524;48.132;8.518;2023-01-16T09:41:25;1.20;99.90
20726;DHT22;10524;48.132;8.518;2023-01-16T09:44:13;1.10;99.90
20726;DHT22;10524;48.132;8.518;2023-01-16T09:46:46;1.10;99.90
20726;DHT22;10524;48.132;8.518;2023-01-16T09:49:23;1.00;99.90
20726;DHT22;10524;48.132;8.518;2023-01-16T09:51:56;0.90;99.90
20726;DHT22;10524;48.132;8.518;2023-01-16T09:54:48;0.90;99.90
20726;DHT22;10524;48.132;8.518;2023-01-16T09:57:36;0.90;99.90
20726;DHT22;10524;48.132;8.518;2023-01-16T10:00:24;0.90;99.90
20726;DHT22;10524;48.132;8.518;2023-01-16T10:02:51;0.80;99.90
20726;DHT22;10524;48.132;8.518;2023-01-16T10:05:17;0.70;99.90
20726;DHT22;10524;48.132;8.518;2023-01-16T10:15:45;0.70;99.90
20726;DHT22;10524;48.132;8.518;2023-01-16T10:18:36;0.70;99.90
20726;DHT22;10524;48.132;8.518;2023-01-16T10:27:07;0.30;99.90
20726;DHT22;10524;48.132;8.518;2023-01-16T10:29:39;0.30;99.90
20726;DHT22;10524;48.132;8.518;2023-01-16T10:37:36;0.00;99.90
20726;DHT22;10524;48.132;8.518;2023-01-16T10:40:30;0.00;99.90
20726;DHT22;10524;48.132;8.518;2023-01-16T10:43:09;0.00;99.90
20726;DHT22;10524;48.132;8.518;2023-01-16T10:45:59;0.00;99.90
20726;DHT22;10524;48.132;8.518;2023-01-16T10:48:44;-0.10;99.90
20726;DHT22;10524;48.132;8.518;2023-01-16T10:51:28;0.00;99.90
20726;DHT22;10524;48.132;8.518;2023-01-16T10:53:54;0.00;99.90
20726;DHT22;10524;48.132;8.518;2023-01-16T10:56:20;0.00;99.90
20726;DHT22;10524;48.132;8.518;2023-01-16T10:58:45;0.10;99.90
20726;DHT22;10524;48.132;8.518;2023-01-16T11:01:17;0.10;99.90
20726;DHT22;10524;48.132;8.518;2023-01-16T11:03:49;0.10;99.90
20726;DHT22;10524;48.132;8.518;2023-01-16T11:06:24;0.20;99.90
20726;DHT22;10524;48.132;8.518;2023-01-16T11:11:29;0.30;99.90
20726;DHT22;10524;48.132;8.518;2023-01-16T11:20:21;0.40;99.90
20726;DHT22;10524;48.132;8.518;2023-01-16T11:25:38;0.30;99.90
20726;DHT22;10524;48.132;8.518;2023-01-16T11:28:07;0.40;99.90
20726;DHT22;10524;48.132;8.518;2023-01-16T11:30:37;0.40;99.90
20726;DHT22;10524;48.132;8.518;2023-01-16T11:33:05;0.30;99.90
20726;DHT22;10524;48.132;8.518;2023-01-16T11:35:37;0.30;99.90
20726;DHT22;10524;48.132;8.518;2023-01-16T11:38:04;0.40;99.90
20726;DHT22;10524;48.132;8.518;2023-01-16T11:40:44;0.40;99.90
20726;DHT22;10524;48.132;8.518;2023-01-16T11:43:17;0.50;99.90
20726;DHT22;10524;48.132;8.518;2023-01-16T11:46:06;0.50;99.90
20726;DHT22;10524;48.132;8.518;2023-01-16T11:48:44;0.50;99.90
20726;DHT22;10524;48.132;8.518;2023-01-16T11:51:16;0.60;99.90
20726;DHT22;10524;48.132;8.518;2023-01-16T11:53:44;0.60;99.90
20726;DHT22;10524;48.132;8.518;2023-01-16T12:01:27;0.70;99.90
20726;DHT22;10524;48.132;8.518;2023-01-16T12:04:23;0.60;99.90
20726;DHT22;10524;48.132;8.518;2023-01-16T12:07:09;0.70;99.90
20726;DHT22;10524;48.132;8.518;2023-01-16T12:12:18;0.70;99.90
20726;DHT22;10524;48.132;8.518;2023-01-16T12:18:14;0.90;99.90
20726;DHT22;10524;48.132;8.518;2023-01-16T12:20:56;1.00;99.90
20726;DHT22;10524;48.132;8.518;2023-01-16T12:26:29;1.30;99.90
20726;DHT22;10524;48.132;8.518;2023-01-16T12:32:17;1.20;99.90
20726;DHT22;10524;48.132;8.518;2023-01-16T12:51:52;1.30;99.90
20726;DHT22;10524;48.132;8.518;2023-01-16T12:59:53;1.30;99.90
20726;DHT22;10524;48.132;8.518;2023-01-16T13:02:34;1.30;99.90
20726;DHT22;10524;48.132;8.518;2023-01-16T13:05:05;1.30;99.90
20726;DHT22;10524;48.132;8.518;2023-01-16T13:07:35;1.50;99.90
20726;DHT22;10524;48.132;8.518;2023-01-16T13:12:55;1.50;99.90
20726;DHT22;10524;48.132;8.518;2023-01-16T13:15:43;1.30;99.90
20726;DHT22;10524;48.132;8.518;2023-01-16T13:18:20;1.20;99.90
20726;DHT22;10524;48.132;8.518;2023-01-16T13:20:51;1.10;99.90
20726;DHT22;10524;48.132;8.518;2023-01-16T13:23:23;1.10;99.90
20726;DHT22;10524;48.132;8.518;2023-01-16T13:25:54;1.00;99.90
20726;DHT22;10524;48.132;8.518;2023-01-16T13:31:30;1.00;99.90
20726;DHT22;10524;48.132;8.518;2023-01-16T13:34:20;1.00;99.90
20726;DHT22;10524;48.132;8.518;2023-01-16T13:42:19;1.00;99.90
20726;DHT22;10524;48.132;8.518;2023-01-16T13:45:01;0.90;99.90
20726;DHT22;10524;48.132;8.518;2023-01-16T13:47:46;0.90;99.90
20726;DHT22;10524;48.132;8.518;2023-01-16T13:50:30;0.80;99.90
20726;DHT22;10524;48.132;8.518;2023-01-16T13:53:00;0.80;99.90
20726;DHT22;10524;48.132;8.518;2023-01-16T13:58:06;0.70;99.90
20726;DHT22;10524;48.132;8.518;2023-01-16T14:00:33;0.70;99.90
20726;DHT22;10524;48.132;8.518;2023-01-16T14:03:10;0.70;99.90
20726;DHT22;10524;48.132;8.518;2023-01-16T14:05:44;0.60;99.90
20726;DHT22;10524;48.132;8.518;2023-01-16T14:11:16;0.60;99.90
20726;DHT22;10524;48.132;8.518;2023-01-16T14:13:49;0.60;99.90
20726;DHT22;10524;48.132;8.518;2023-01-16T14:16:31;0.70;99.90
20726;DHT22;10524;48.132;8.518;2023-01-16T14:21:44;0.70;99.90
20726;DHT22;10524;48.132;8.518;2023-01-16T14:24:52;0.70;99.90
20726;DHT22;10524;48.132;8.518;2023-01-16T14:27:30;0.80;99.90
20726;DHT22;10524;48.132;8.518;2023-01-16T14:29:59;0.80;99.90
20726;DHT22;10524;48.132;8.518;2023-01-16T14:32:28;0.80;99.90
20726;DHT22;10524;48.132;8.518;2023-01-16T14:37:27;0.90;99.90
20726;DHT22;10524;48.132;8.518;2023-01-16T14:42:52;1.00;99.90
20726;DHT22;10524;48.132;8.518;2023-01-16T14:45:38;1.00;99.90
20726;DHT22;10524;48.132;8.518;2023-01-16T14:51:37;1.00;99.90
20726;DHT22;10524;48.132;8.518;2023-01-16T14:54:30;1.00;99.90
20726;DHT22;10524;48.132;8.518;2023-01-16T14:57:22;1.00;99.90
20726;DHT22;10524;48.132;8.518;2023-01-16T15:00:09;1.00;99.90
20726;DHT22;10524;48.132;8.518;2023-01-16T15:02:49;1.10;99.90
20726;DHT22;10524;48.132;8.518;2023-01-16T15:05:23;1.10;99.90
20726;DHT22;10524;48.132;8.518;2023-01-16T15:08:14;1.10;99.90
20726;DHT22;10524;48.132;8.518;2023-01-16T15:10:41;1.10;99.90
20726;DHT22;10524;48.132;8.518;2023-01-16T15:13:29;1.00;99.90
20726;DHT22;10524;48.132;8.518;2023-01-16T15:16:22;1.10;99.90
20726;DHT22;10524;48.132;8.518;2023-01-16T15:19:20;1.00;99.90
20726;DHT22;10524;48.132;8.518;2023-01-16T15:22:15;1.00;99.90
20726;DHT22;10524;48.132;8.518;2023-01-16T15:24:48;1.00;99.90
20726;DHT22;10524;48.132;8.518;2023-01-16T15:27:20;0.80;99.90
20726;DHT22;10524;48.132;8.518;2023-01-16T15:29:57;0.70;99.90
20726;DHT22;10524;48.132;8.518;2023-01-16T15:32:26;0.60;99.90
20726;DHT22;10524;48.132;8.518;2023-01-16T15:37:50;0.60;99.90
20726;DHT22;10524;48.132;8.518;2023-01-16T15:40:25;0.70;99.90
20726;DHT22;10524;48.132;8.518;2023-01-16T15:42:52;0.70;99.90
20726;DHT22;10524;48.132;8.518;2023-01-16T15:45:47;0.80;99.90
20726;DHT22;10524;48.132;8.518;2023-01-16T15:51:26;0.90;99.90
20726;DHT22;10524;48.132;8.518;2023-01-16T15:53:55;0.90;99.90
20726;DHT22;10524;48.132;8.518;2023-01-16T15:56:26;0.90;99.90
20726;DHT22;10524;48.132;8.518;2023-01-16T15:58:53;0.90;99.90
20726;DHT22;10524;48.132;8.518;2023-01-16T16:01:33;0.80;99.90
20726;DHT22;10524;48.132;8.518;2023-01-16T16:04:01;0.80;99.90
20726;DHT22;10524;48.132;8.518;2023-01-16T16:06:28;0.90;99.90
20726;DHT22;10524;48.132;8.518;2023-01-16T16:08:56;0.90;99.90
20726;DHT22;10524;48.132;8.518;2023-01-16T16:11:29;1.00;99.90
20726;DHT22;10524;48.132;8.518;2023-01-16T16:14:24;1.00;99.90
20726;DHT22;10524;48.132;8.518;2023-01-16T16:17:27;1.00;99.90
20726;DHT22;10524;48.132;8.518;2023-01-16T16:20:35;1.10;99.90
20726;DHT22;10524;48.132;8.518;2023-01-16T16:23:21;1.10;99.90
20726;DHT22;10524;48.132;8.518;2023-01-16T16:26:01;1.10;99.90
20726;DHT22;10524;48.132;8.518;2023-01-16T16:31:45;1.20;99.90
20726;DHT22;10524;48.132;8.518;2023-01-16T16:34:22;1.30;99.90
20726;DHT22;10524;48.132;8.518;2023-01-16T16:36:56;1.30;99.90
20726;DHT22;10524;48.132;8.518;2023-01-16T16:39:30;1.40;99.90
20726;DHT22;10524;48.132;8.518;2023-01-16T16:42:00;1.40;99.90
20726;DHT22;10524;48.132;8.518;2023-01-16T16:45:02;1.40;99.90
20726;DHT22;10524;48.132;8.518;2023-01-16T16:47:30;1.40;99.90
20726;DHT22;10524;48.132;8.518;2023-01-16T16:49:56;1.40;99.90
20726;DHT22;10524;48.132;8.518;2023-01-16T16:52:36;1.40;99.90
20726;DHT22;10524;48.132;8.518;2023-01-16T16:55:36;1.40;99.90
20726;DHT22;10524;48.132;8.518;2023-01-16T16:58:05;1.40;99.90
20726;DHT22;10524;48.132;8.518;2023-01-16T17:00:34;1.40;99.90
20726;DHT22;10524;48.132;8.518;2023-01-16T17:03:16;1.40;99.90
20726;DHT22;10524;48.132;8.518;2023-01-16T17:05:42;1.30;99.90
20726;DHT22;10524;48.132;8.518;2023-01-16T17:08:15;1.30;99.90
20726;DHT22;10524;48.132;8.518;2023-01-16T17:10:41;1.20;99.90
20726;DHT22;10524;48.132;8.518;2023-01-16T17:13:09;1.20;99.90
20726;DHT22;10524;48.132;8.518;2023-01-16T17:15:35;1.20;99.90
20726;DHT22;10524;48.132;8.518;2023-01-16T17:18:01;1.20;99.90
20726;DHT22;10524;48.132;8.518;2023-01-16T17:20:27;1.20;99.90
20726;DHT22;10524;48.132;8.518;2023-01-16T17:22:53;1.20;99.90
20726;DHT22;10524;48.132;8.518;2023-01-16T17:25:19;1.30;99.90
20726;DHT22;10524;48.132;8.518;2023-01-16T17:27:48;1.20;99.90
20726;DHT22;10524;48.132;8.518;2023-01-16T17:30:14;1.30;99.90
20726;DHT22;10524;48.132;8.518;2023-01-16T17:32:41;1.20;99.90
20726;DHT22;10524;48.132;8.518;2023-01-16T17:35:16;1.20;99.90
20726;DHT22;10524;48.132;8.518;2023-01-16T17:37:42;1.20;99.90
20726;DHT22;10524;48.132;8.518;2023-01-16T17:40:09;1.10;99.90
20726;DHT22;10524;48.132;8.518;2023-01-16T17:42:35;1.10;99.90
20726;DHT22;10524;48.132;8.518;2023-01-16T17:45:40;1.00;99.90
20726;DHT22;10524;48.132;8.518;2023-01-16T17:48:26;0.90;99.90
20726;DHT22;10524;48.132;8.518;2023-01-16T17:50:53;0.90;99.90
20726;DHT22;10524;48.132;8.518;2023-01-16T17:53:22;0.90;99.90
20726;DHT22;10524;48.132;8.518;2023-01-16T17:55:50;0.90;99.90
20726;DHT22;10524;48.132;8.518;2023-01-16T17:58:22;0.90;99.90
20726;DHT22;10524;48.132;8.518;2023-01-16T18:00:56;0.80;99.90
20726;DHT22;10524;48.132;8.518;2023-01-16T18:03:21;0.90;99.90
20726;DHT22;10524;48.132;8.518;2023-01-16T18:05:47;0.90;99.90
20726;DHT22;10524;48.132;8.518;2023-01-16T18:08:13;0.90;99.90
20726;DHT22;10524;48.132;8.518;2023-01-16T18:10:39;0.90;99.90
20726;DHT22;10524;48.132;8.518;2023-01-16T18:13:05;0.90;99.90
20726;DHT22;10524;48.132;8.518;2023-01-16T18:15:49;1.00;99.90
20726;DHT22;10524;48.132;8.518;2023-01-16T18:18:34;0.90;99.90
20726;DHT22;10524;48.132;8.518;2023-01-16T18:20:59;1.00;99.90
20726;DHT22;10524;48.132;8.518;2023-01-16T18:23:43;0.90;99.90
20726;DHT22;10524;48.132;8.518;2023-01-16T18:26:09;0.90;99.90
20726;DHT22;10524;48.132;8.518;2023-01-16T18:28:34;0.90;99.90
20726;DHT22;10524;48.132;8.518;2023-01-16T18:31:04;0.90;99.90
20726;DHT22;10524;48.132;8.518;2023-01-16T18:33:32;0.90;99.90
20726;DHT22;10524;48.132;8.518;2023-01-16T18:36:02;1.00;99.90